Cimarron, New Mexico
Current Conditions -  °F | °C
As of 4:35 PM on Saturday 22 Nov 2014 (Local Time) from KAXX Reporting Station
Clear Clear  
Wind Chill: 36°   Ceiling: Unl
Heat Index: 39°   Visibility: 10mi
Dew Point: 13°   Wind: 5mph
Humidity: 35%   Direction: 170°S
Pressure: 29.91"   Gusts: NA
Location:  36.51°N, 104.92°W
Report Text: KAXX 222335Z AUTO 17004KT 10SM CLR 04/M10 A2991 RMK AO2 T00391104
Loading
Personal Weather Stations






























Interactive Weather Map New forecast layout! Learn more

10-Day Weather Forecast

Advertisements
Track Severe Weather on mobile